sensor_id;sensor_type;location;lat;lon;timestamp;P1;durP1;ratioP1;P2;durP2;ratioP2
49942;SDS011;36011;53.362;58.948;2022-11-11T00:02:07;0.85;;;0.82;;
49942;SDS011;36011;53.362;58.948;2022-11-11T00:05:11;0.70;;;0.70;;
49942;SDS011;36011;53.362;58.948;2022-11-11T00:08:16;0.80;;;0.80;;
49942;SDS011;36011;53.362;58.948;2022-11-11T00:11:25;1.13;;;0.80;;
49942;SDS011;36011;53.362;58.948;2022-11-11T00:14:31;1.58;;;1.08;;
49942;SDS011;36011;53.362;58.948;2022-11-11T00:17:35;1.65;;;0.77;;
49942;SDS011;36011;53.362;58.948;2022-11-11T00:20:58;1.63;;;1.17;;
49942;SDS011;36011;53.362;58.948;2022-11-11T00:27:45;0.70;;;0.70;;
49942;SDS011;36011;53.362;58.948;2022-11-11T00:30:47;1.13;;;0.80;;
49942;SDS011;36011;53.362;58.948;2022-11-11T00:33:53;0.70;;;0.70;;
49942;SDS011;36011;53.362;58.948;2022-11-11T00:37:00;1.02;;;0.93;;
49942;SDS011;36011;53.362;58.948;2022-11-11T00:40:02;1.08;;;0.68;;
49942;SDS011;36011;53.362;58.948;2022-11-11T00:43:04;0.95;;;0.80;;
49942;SDS011;36011;53.362;58.948;2022-11-11T00:46:10;1.10;;;1.00;;
49942;SDS011;36011;53.362;58.948;2022-11-11T00:49:33;0.80;;;0.80;;
49942;SDS011;36011;53.362;58.948;2022-11-11T00:52:55;0.80;;;0.80;;
49942;SDS011;36011;53.362;58.948;2022-11-11T00:56:02;0.85;;;0.80;;
49942;SDS011;36011;53.362;58.948;2022-11-11T00:59:04;1.60;;;1.15;;
49942;SDS011;36011;53.362;58.948;2022-11-11T01:05:10;0.93;;;0.70;;
49942;SDS011;36011;53.362;58.948;2022-11-11T01:08:19;0.50;;;0.50;;
49942;SDS011;36011;53.362;58.948;2022-11-11T01:11:29;0.60;;;0.60;;
49942;SDS011;36011;53.362;58.948;2022-11-11T01:14:30;0.70;;;0.70;;
49942;SDS011;36011;53.362;58.948;2022-11-11T01:17:32;0.70;;;0.70;;
49942;SDS011;36011;53.362;58.948;2022-11-11T01:20:41;0.73;;;0.73;;
49942;SDS011;36011;53.362;58.948;2022-11-11T01:23:48;0.60;;;0.60;;
49942;SDS011;36011;53.362;58.948;2022-11-11T01:26:50;0.60;;;0.60;;
49942;SDS011;36011;53.362;58.948;2022-11-11T01:29:56;1.13;;;0.90;;
49942;SDS011;36011;53.362;58.948;2022-11-11T01:33:02;0.80;;;0.80;;
49942;SDS011;36011;53.362;58.948;2022-11-11T01:36:06;0.95;;;0.70;;
49942;SDS011;36011;53.362;58.948;2022-11-11T01:39:10;0.98;;;0.98;;
49942;SDS011;36011;53.362;58.948;2022-11-11T01:42:14;1.02;;;0.90;;
49942;SDS011;36011;53.362;58.948;2022-11-11T01:48:47;1.25;;;1.15;;
49942;SDS011;36011;53.362;58.948;2022-11-11T01:55:28;1.27;;;1.17;;
49942;SDS011;36011;53.362;58.948;2022-11-11T01:58:33;1.08;;;0.98;;
49942;SDS011;36011;53.362;58.948;2022-11-11T02:01:40;1.30;;;0.75;;
49942;SDS011;36011;53.362;58.948;2022-11-11T02:04:43;1.00;;;0.90;;
49942;SDS011;36011;53.362;58.948;2022-11-11T02:08:09;1.60;;;1.10;;
49942;SDS011;36011;53.362;58.948;2022-11-11T02:11:16;1.00;;;1.00;;
49942;SDS011;36011;53.362;58.948;2022-11-11T02:14:43;1.35;;;1.20;;
49942;SDS011;36011;53.362;58.948;2022-11-11T02:17:49;1.83;;;1.42;;
49942;SDS011;36011;53.362;58.948;2022-11-11T02:20:53;1.10;;;1.00;;
49942;SDS011;36011;53.362;58.948;2022-11-11T02:27:15;1.05;;;0.95;;
49942;SDS011;36011;53.362;58.948;2022-11-11T02:30:22;1.05;;;1.00;;
49942;SDS011;36011;53.362;58.948;2022-11-11T02:33:33;1.30;;;1.20;;
49942;SDS011;36011;53.362;58.948;2022-11-11T02:36:37;1.38;;;0.93;;
49942;SDS011;36011;53.362;58.948;2022-11-11T02:39:45;0.90;;;0.90;;
49942;SDS011;36011;53.362;58.948;2022-11-11T02:42:48;1.25;;;1.15;;
49942;SDS011;36011;53.362;58.948;2022-11-11T02:45:52;2.15;;;1.92;;
49942;SDS011;36011;53.362;58.948;2022-11-11T02:49:01;2.33;;;1.60;;
49942;SDS011;36011;53.362;58.948;2022-11-11T02:52:04;2.08;;;1.77;;
49942;SDS011;36011;53.362;58.948;2022-11-11T02:55:09;2.53;;;1.85;;
49942;SDS011;36011;53.362;58.948;2022-11-11T02:58:16;2.00;;;1.63;;
49942;SDS011;36011;53.362;58.948;2022-11-11T03:01:21;3.47;;;2.03;;
49942;SDS011;36011;53.362;58.948;2022-11-11T03:04:26;2.70;;;1.73;;
49942;SDS011;36011;53.362;58.948;2022-11-11T03:07:27;3.60;;;2.47;;
49942;SDS011;36011;53.362;58.948;2022-11-11T03:10:28;2.55;;;1.80;;
49942;SDS011;36011;53.362;58.948;2022-11-11T03:13:30;2.35;;;1.80;;
49942;SDS011;36011;53.362;58.948;2022-11-11T03:16:34;3.30;;;2.25;;
49942;SDS011;36011;53.362;58.948;2022-11-11T03:19:58;2.40;;;1.75;;
49942;SDS011;36011;53.362;58.948;2022-11-11T03:23:22;2.35;;;2.15;;
49942;SDS011;36011;53.362;58.948;2022-11-11T03:26:25;2.15;;;1.60;;
49942;SDS011;36011;53.362;58.948;2022-11-11T03:29:29;1.73;;;1.63;;
49942;SDS011;36011;53.362;58.948;2022-11-11T03:32:37;2.30;;;1.80;;
49942;SDS011;36011;53.362;58.948;2022-11-11T03:35:45;1.73;;;1.63;;
49942;SDS011;36011;53.362;58.948;2022-11-11T03:38:54;2.65;;;1.80;;
49942;SDS011;36011;53.362;58.948;2022-11-11T03:42:05;2.00;;;1.77;;
49942;SDS011;36011;53.362;58.948;2022-11-11T03:45:13;1.63;;;1.52;;
49942;SDS011;36011;53.362;58.948;2022-11-11T03:48:19;1.67;;;1.58;;
49942;SDS011;36011;53.362;58.948;2022-11-11T03:51:21;1.20;;;1.10;;
49942;SDS011;36011;53.362;58.948;2022-11-11T03:54:25;1.60;;;1.08;;
49942;SDS011;36011;53.362;58.948;2022-11-11T03:57:28;1.85;;;1.23;;
49942;SDS011;36011;53.362;58.948;2022-11-11T04:00:37;2.08;;;1.35;;
49942;SDS011;36011;53.362;58.948;2022-11-11T04:03:39;2.03;;;1.58;;
49942;SDS011;36011;53.362;58.948;2022-11-11T04:07:20;1.80;;;1.65;;
49942;SDS011;36011;53.362;58.948;2022-11-11T04:10:40;1.88;;;1.50;;
49942;SDS011;36011;53.362;58.948;2022-11-11T04:13:42;2.22;;;1.73;;
49942;SDS011;36011;53.362;58.948;2022-11-11T04:17:05;1.75;;;0.95;;
49942;SDS011;36011;53.362;58.948;2022-11-11T04:20:09;2.30;;;1.30;;
49942;SDS011;36011;53.362;58.948;2022-11-11T04:23:29;2.63;;;2.15;;
49942;SDS011;36011;53.362;58.948;2022-11-11T04:26:31;2.38;;;1.73;;
49942;SDS011;36011;53.362;58.948;2022-11-11T04:29:35;3.00;;;2.63;;
49942;SDS011;36011;53.362;58.948;2022-11-11T04:32:36;3.03;;;1.83;;
49942;SDS011;36011;53.362;58.948;2022-11-11T04:35:42;2.00;;;1.55;;
49942;SDS011;36011;53.362;58.948;2022-11-11T04:38:55;3.55;;;2.05;;
49942;SDS011;36011;53.362;58.948;2022-11-11T04:42:19;2.90;;;2.20;;
49942;SDS011;36011;53.362;58.948;2022-11-11T04:45:23;6.85;;;3.65;;
49942;SDS011;36011;53.362;58.948;2022-11-11T04:48:35;2.42;;;1.60;;
49942;SDS011;36011;53.362;58.948;2022-11-11T04:51:43;4.25;;;2.50;;
49942;SDS011;36011;53.362;58.948;2022-11-11T04:55:03;3.13;;;1.77;;
49942;SDS011;36011;53.362;58.948;2022-11-11T04:58:28;2.47;;;1.77;;
49942;SDS011;36011;53.362;58.948;2022-11-11T05:01:33;3.60;;;2.35;;
49942;SDS011;36011;53.362;58.948;2022-11-11T05:04:59;3.53;;;1.73;;
49942;SDS011;36011;53.362;58.948;2022-11-11T05:08:07;1.98;;;1.52;;
49942;SDS011;36011;53.362;58.948;2022-11-11T05:11:28;2.50;;;1.80;;
49942;SDS011;36011;53.362;58.948;2022-11-11T05:14:36;2.30;;;1.83;;
49942;SDS011;36011;53.362;58.948;2022-11-11T05:17:58;4.53;;;2.20;;
49942;SDS011;36011;53.362;58.948;2022-11-11T05:21:27;2.33;;;1.50;;
49942;SDS011;36011;53.362;58.948;2022-11-11T05:24:34;1.20;;;1.10;;
49942;SDS011;36011;53.362;58.948;2022-11-11T05:27:57;2.05;;;1.63;;
49942;SDS011;36011;53.362;58.948;2022-11-11T05:30:58;1.38;;;1.13;;
49942;SDS011;36011;53.362;58.948;2022-11-11T05:34:03;1.92;;;1.25;;
49942;SDS011;36011;53.362;58.948;2022-11-11T05:37:09;1.65;;;1.55;;
49942;SDS011;36011;53.362;58.948;2022-11-11T05:40:11;2.50;;;1.65;;
49942;SDS011;36011;53.362;58.948;2022-11-11T05:43:12;1.73;;;1.52;;
49942;SDS011;36011;53.362;58.948;2022-11-11T05:46:13;1.40;;;1.30;;
49942;SDS011;36011;53.362;58.948;2022-11-11T05:49:17;0.95;;;0.88;;
49942;SDS011;36011;53.362;58.948;2022-11-11T05:52:21;1.20;;;0.98;;
49942;SDS011;36011;53.362;58.948;2022-11-11T05:55:27;2.53;;;0.88;;
49942;SDS011;36011;53.362;58.948;2022-11-11T05:58:28;2.60;;;1.50;;
49942;SDS011;36011;53.362;58.948;2022-11-11T06:01:32;1.42;;;1.33;;
49942;SDS011;36011;53.362;58.948;2022-11-11T06:04:39;1.70;;;1.60;;
49942;SDS011;36011;53.362;58.948;2022-11-11T06:07:41;1.35;;;1.20;;
49942;SDS011;36011;53.362;58.948;2022-11-11T06:10:42;2.13;;;1.65;;
49942;SDS011;36011;53.362;58.948;2022-11-11T06:13:44;2.70;;;1.88;;
49942;SDS011;36011;53.362;58.948;2022-11-11T06:16:53;2.80;;;1.90;;
49942;SDS011;36011;53.362;58.948;2022-11-11T06:19:56;2.25;;;1.80;;
49942;SDS011;36011;53.362;58.948;2022-11-11T06:23:06;3.78;;;2.30;;
49942;SDS011;36011;53.362;58.948;2022-11-11T06:26:12;4.60;;;2.80;;
49942;SDS011;36011;53.362;58.948;2022-11-11T06:29:18;5.20;;;3.20;;
49942;SDS011;36011;53.362;58.948;2022-11-11T06:32:25;4.10;;;2.67;;
49942;SDS011;36011;53.362;58.948;2022-11-11T06:35:28;5.03;;;2.83;;
49942;SDS011;36011;53.362;58.948;2022-11-11T06:38:32;4.30;;;2.55;;
49942;SDS011;36011;53.362;58.948;2022-11-11T06:41:37;2.00;;;1.80;;
49942;SDS011;36011;53.362;58.948;2022-11-11T06:47:48;1.40;;;1.13;;
49942;SDS011;36011;53.362;58.948;2022-11-11T06:50:49;1.55;;;1.20;;
49942;SDS011;36011;53.362;58.948;2022-11-11T06:53:53;1.02;;;0.93;;
49942;SDS011;36011;53.362;58.948;2022-11-11T06:57:06;1.45;;;1.35;;
49942;SDS011;36011;53.362;58.948;2022-11-11T07:00:10;2.08;;;1.85;;
49942;SDS011;36011;53.362;58.948;2022-11-11T07:03:13;1.40;;;1.15;;
49942;SDS011;36011;53.362;58.948;2022-11-11T07:06:26;1.98;;;1.60;;
49942;SDS011;36011;53.362;58.948;2022-11-11T07:09:37;1.75;;;1.65;;
49942;SDS011;36011;53.362;58.948;2022-11-11T07:12:43;1.65;;;1.55;;
49942;SDS011;36011;53.362;58.948;2022-11-11T07:15:47;1.30;;;1.20;;
49942;SDS011;36011;53.362;58.948;2022-11-11T07:18:56;1.27;;;1.17;;
49942;SDS011;36011;53.362;58.948;2022-11-11T07:22:03;1.38;;;1.08;;
49942;SDS011;36011;53.362;58.948;2022-11-11T07:25:10;1.95;;;1.55;;
49942;SDS011;36011;53.362;58.948;2022-11-11T07:28:15;2.03;;;1.52;;
49942;SDS011;36011;53.362;58.948;2022-11-11T07:31:21;2.30;;;1.63;;
49942;SDS011;36011;53.362;58.948;2022-11-11T07:34:28;1.73;;;1.33;;
49942;SDS011;36011;53.362;58.948;2022-11-11T07:37:35;3.30;;;2.00;;
49942;SDS011;36011;53.362;58.948;2022-11-11T07:40:43;3.35;;;2.67;;
49942;SDS011;36011;53.362;58.948;2022-11-11T07:43:50;2.05;;;1.90;;
49942;SDS011;36011;53.362;58.948;2022-11-11T07:46:51;2.17;;;1.92;;
49942;SDS011;36011;53.362;58.948;2022-11-11T07:49:53;2.80;;;1.90;;
49942;SDS011;36011;53.362;58.948;2022-11-11T07:52:58;2.33;;;1.98;;
49942;SDS011;36011;53.362;58.948;2022-11-11T07:56:04;2.35;;;1.80;;
49942;SDS011;36011;53.362;58.948;2022-11-11T07:59:08;1.58;;;1.48;;
49942;SDS011;36011;53.362;58.948;2022-11-11T08:02:12;2.95;;;2.42;;
49942;SDS011;36011;53.362;58.948;2022-11-11T08:05:14;1.52;;;1.38;;
49942;SDS011;36011;53.362;58.948;2022-11-11T08:08:20;2.08;;;1.48;;
49942;SDS011;36011;53.362;58.948;2022-11-11T08:11:28;2.08;;;1.85;;
49942;SDS011;36011;53.362;58.948;2022-11-11T08:14:48;1.88;;;1.30;;
49942;SDS011;36011;53.362;58.948;2022-11-11T08:17:54;2.10;;;1.83;;
49942;SDS011;36011;53.362;58.948;2022-11-11T08:20:59;3.45;;;2.35;;
49942;SDS011;36011;53.362;58.948;2022-11-11T08:24:09;2.22;;;2.03;;
49942;SDS011;36011;53.362;58.948;2022-11-11T08:27:16;2.53;;;2.33;;
49942;SDS011;36011;53.362;58.948;2022-11-11T08:30:28;2.97;;;2.33;;
49942;SDS011;36011;53.362;58.948;2022-11-11T08:33:29;2.90;;;2.40;;
49942;SDS011;36011;53.362;58.948;2022-11-11T08:36:36;3.60;;;2.45;;
49942;SDS011;36011;53.362;58.948;2022-11-11T08:39:40;2.72;;;2.53;;
49942;SDS011;36011;53.362;58.948;2022-11-11T08:42:42;4.38;;;2.35;;
49942;SDS011;36011;53.362;58.948;2022-11-11T08:46:03;2.53;;;1.67;;
49942;SDS011;36011;53.362;58.948;2022-11-11T08:49:07;3.22;;;2.53;;
49942;SDS011;36011;53.362;58.948;2022-11-11T08:52:08;3.85;;;2.53;;
49942;SDS011;36011;53.362;58.948;2022-11-11T08:55:23;2.47;;;2.28;;
49942;SDS011;36011;53.362;58.948;2022-11-11T08:58:26;2.28;;;1.73;;
49942;SDS011;36011;53.362;58.948;2022-11-11T09:01:37;2.70;;;2.20;;
49942;SDS011;36011;53.362;58.948;2022-11-11T09:04:50;3.35;;;2.50;;
49942;SDS011;36011;53.362;58.948;2022-11-11T09:07:54;2.60;;;2.30;;
49942;SDS011;36011;53.362;58.948;2022-11-11T09:11:00;4.78;;;2.95;;
49942;SDS011;36011;53.362;58.948;2022-11-11T09:14:01;3.65;;;2.33;;
49942;SDS011;36011;53.362;58.948;2022-11-11T09:17:05;2.47;;;1.83;;
49942;SDS011;36011;53.362;58.948;2022-11-11T09:20:07;2.17;;;1.92;;
49942;SDS011;36011;53.362;58.948;2022-11-11T09:23:14;3.30;;;2.30;;
49942;SDS011;36011;53.362;58.948;2022-11-11T09:26:15;2.72;;;1.88;;
49942;SDS011;36011;53.362;58.948;2022-11-11T09:32:21;3.63;;;2.50;;
49942;SDS011;36011;53.362;58.948;2022-11-11T09:35:26;3.28;;;2.13;;
49942;SDS011;36011;53.362;58.948;2022-11-11T09:38:30;3.00;;;2.38;;
49942;SDS011;36011;53.362;58.948;2022-11-11T09:48:56;3.03;;;2.50;;
49942;SDS011;36011;53.362;58.948;2022-11-11T09:55:31;2.63;;;2.38;;
49942;SDS011;36011;53.362;58.948;2022-11-11T09:58:43;2.40;;;2.20;;
49942;SDS011;36011;53.362;58.948;2022-11-11T10:01:48;3.80;;;2.50;;
49942;SDS011;36011;53.362;58.948;2022-11-11T10:05:11;4.07;;;2.20;;
49942;SDS011;36011;53.362;58.948;2022-11-11T10:14:50;5.10;;;2.53;;
49942;SDS011;36011;53.362;58.948;2022-11-11T10:21:04;4.03;;;3.00;;
49942;SDS011;36011;53.362;58.948;2022-11-11T10:24:32;5.07;;;2.97;;
49942;SDS011;36011;53.362;58.948;2022-11-11T10:27:41;6.15;;;3.97;;
49942;SDS011;36011;53.362;58.948;2022-11-11T10:30:47;4.70;;;3.35;;
49942;SDS011;36011;53.362;58.948;2022-11-11T10:33:57;3.88;;;3.15;;
49942;SDS011;36011;53.362;58.948;2022-11-11T10:37:08;5.45;;;3.60;;
49942;SDS011;36011;53.362;58.948;2022-11-11T10:40:22;3.38;;;2.33;;
49942;SDS011;36011;53.362;58.948;2022-11-11T10:43:29;4.63;;;3.50;;
49942;SDS011;36011;53.362;58.948;2022-11-11T10:46:38;4.00;;;2.70;;
49942;SDS011;36011;53.362;58.948;2022-11-11T10:50:01;3.72;;;3.00;;
49942;SDS011;36011;53.362;58.948;2022-11-11T10:56:18;2.72;;;2.35;;
49942;SDS011;36011;53.362;58.948;2022-11-11T10:59:29;2.40;;;1.90;;
49942;SDS011;36011;53.362;58.948;2022-11-11T11:02:58;3.15;;;2.60;;
49942;SDS011;36011;53.362;58.948;2022-11-11T11:09:47;3.53;;;2.53;;
49942;SDS011;36011;53.362;58.948;2022-11-11T11:13:02;3.75;;;2.80;;
49942;SDS011;36011;53.362;58.948;2022-11-11T11:16:11;4.82;;;2.78;;
49942;SDS011;36011;53.362;58.948;2022-11-11T11:19:18;3.58;;;2.97;;
49942;SDS011;36011;53.362;58.948;2022-11-11T11:26:13;3.47;;;2.80;;
49942;SDS011;36011;53.362;58.948;2022-11-11T11:29:23;5.03;;;2.90;;
49942;SDS011;36011;53.362;58.948;2022-11-11T11:32:29;3.95;;;2.88;;
49942;SDS011;36011;53.362;58.948;2022-11-11T11:35:38;4.15;;;3.17;;
49942;SDS011;36011;53.362;58.948;2022-11-11T11:39:04;4.13;;;3.42;;
49942;SDS011;36011;53.362;58.948;2022-11-11T11:45:34;3.97;;;2.72;;
49942;SDS011;36011;53.362;58.948;2022-11-11T11:48:58;3.33;;;2.78;;
49942;SDS011;36011;53.362;58.948;2022-11-11T11:52:20;3.70;;;2.67;;
49942;SDS011;36011;53.362;58.948;2022-11-11T11:55:24;4.15;;;2.67;;
49942;SDS011;36011;53.362;58.948;2022-11-11T12:09:17;3.58;;;2.58;;
49942;SDS011;36011;53.362;58.948;2022-11-11T12:15:42;3.63;;;3.00;;
49942;SDS011;36011;53.362;58.948;2022-11-11T12:18:56;3.67;;;3.00;;
49942;SDS011;36011;53.362;58.948;2022-11-11T12:22:05;3.55;;;2.75;;
49942;SDS011;36011;53.362;58.948;2022-11-11T12:28:30;4.65;;;3.15;;
49942;SDS011;36011;53.362;58.948;2022-11-11T12:36:09;2.92;;;2.47;;
49942;SDS011;36011;53.362;58.948;2022-11-11T12:39:21;4.13;;;2.83;;
49942;SDS011;36011;53.362;58.948;2022-11-11T12:42:49;4.25;;;2.85;;
49942;SDS011;36011;53.362;58.948;2022-11-11T13:06:49;4.28;;;3.13;;
49942;SDS011;36011;53.362;58.948;2022-11-11T13:10:36;2.75;;;2.55;;
49942;SDS011;36011;53.362;58.948;2022-11-11T13:17:25;2.50;;;2.28;;
49942;SDS011;36011;53.362;58.948;2022-11-11T13:23:42;3.17;;;2.53;;
49942;SDS011;36011;53.362;58.948;2022-11-11T13:30:44;3.65;;;2.80;;
49942;SDS011;36011;53.362;58.948;2022-11-11T13:33:56;4.18;;;3.13;;
49942;SDS011;36011;53.362;58.948;2022-11-11T13:37:04;3.35;;;2.90;;
49942;SDS011;36011;53.362;58.948;2022-11-11T13:43:47;3.33;;;2.45;;
49942;SDS011;36011;53.362;58.948;2022-11-11T13:47:28;4.15;;;3.13;;
49942;SDS011;36011;53.362;58.948;2022-11-11T13:53:35;3.08;;;2.40;;
49942;SDS011;36011;53.362;58.948;2022-11-11T13:56:41;2.80;;;2.45;;
49942;SDS011;36011;53.362;58.948;2022-11-11T14:13:05;2.72;;;2.17;;
49942;SDS011;36011;53.362;58.948;2022-11-11T14:19:41;3.15;;;2.03;;
49942;SDS011;36011;53.362;58.948;2022-11-11T14:22:48;2.40;;;2.03;;
49942;SDS011;36011;53.362;58.948;2022-11-11T14:25:50;2.80;;;2.13;;
49942;SDS011;36011;53.362;58.948;2022-11-11T14:29:17;3.35;;;2.15;;
49942;SDS011;36011;53.362;58.948;2022-11-11T14:35:37;3.35;;;2.47;;
49942;SDS011;36011;53.362;58.948;2022-11-11T14:42:40;3.10;;;2.55;;
49942;SDS011;36011;53.362;58.948;2022-11-11T14:48:55;4.55;;;2.85;;
49942;SDS011;36011;53.362;58.948;2022-11-11T14:52:01;4.32;;;2.35;;
49942;SDS011;36011;53.362;58.948;2022-11-11T14:55:10;4.85;;;2.97;;
49942;SDS011;36011;53.362;58.948;2022-11-11T14:58:26;3.50;;;2.22;;
49942;SDS011;36011;53.362;58.948;2022-11-11T15:01:37;3.67;;;2.38;;
49942;SDS011;36011;53.362;58.948;2022-11-11T15:04:45;3.58;;;2.00;;
49942;SDS011;36011;53.362;58.948;2022-11-11T15:14:45;3.45;;;2.20;;
49942;SDS011;36011;53.362;58.948;2022-11-11T15:21:55;2.10;;;1.83;;
49942;SDS011;36011;53.362;58.948;2022-11-11T15:38:27;1.48;;;1.20;;
49942;SDS011;36011;53.362;58.948;2022-11-11T15:41:38;1.48;;;1.10;;
49942;SDS011;36011;53.362;58.948;2022-11-11T15:44:41;0.90;;;0.90;;
49942;SDS011;36011;53.362;58.948;2022-11-11T15:47:57;0.68;;;0.68;;
49942;SDS011;36011;53.362;58.948;2022-11-11T15:54:21;2.70;;;1.25;;
49942;SDS011;36011;53.362;58.948;2022-11-11T15:57:27;2.05;;;1.52;;
49942;SDS011;36011;53.362;58.948;2022-11-11T16:00:33;1.67;;;1.10;;
49942;SDS011;36011;53.362;58.948;2022-11-11T16:03:41;1.48;;;1.00;;
49942;SDS011;36011;53.362;58.948;2022-11-11T16:06:48;1.83;;;1.13;;
49942;SDS011;36011;53.362;58.948;2022-11-11T16:09:53;1.75;;;1.25;;
49942;SDS011;36011;53.362;58.948;2022-11-11T16:13:12;2.40;;;1.17;;
49942;SDS011;36011;53.362;58.948;2022-11-11T16:16:22;0.90;;;0.88;;
49942;SDS011;36011;53.362;58.948;2022-11-11T16:19:37;0.82;;;0.73;;
49942;SDS011;36011;53.362;58.948;2022-11-11T16:22:42;0.70;;;0.60;;
49942;SDS011;36011;53.362;58.948;2022-11-11T16:25:48;0.98;;;0.85;;
49942;SDS011;36011;53.362;58.948;2022-11-11T16:28:54;1.13;;;1.02;;
49942;SDS011;36011;53.362;58.948;2022-11-11T16:32:00;1.45;;;0.95;;
49942;SDS011;36011;53.362;58.948;2022-11-11T16:35:30;0.90;;;0.63;;
49942;SDS011;36011;53.362;58.948;2022-11-11T16:38:40;1.65;;;0.70;;
49942;SDS011;36011;53.362;58.948;2022-11-11T16:41:51;0.60;;;0.60;;
49942;SDS011;36011;53.362;58.948;2022-11-11T16:45:03;1.38;;;1.02;;
49942;SDS011;36011;53.362;58.948;2022-11-11T16:48:51;0.68;;;0.60;;
49942;SDS011;36011;53.362;58.948;2022-11-11T16:51:44;1.65;;;1.00;;
49942;SDS011;36011;53.362;58.948;2022-11-11T16:54:50;1.35;;;1.00;;
49942;SDS011;36011;53.362;58.948;2022-11-11T17:01:15;1.02;;;0.90;;
49942;SDS011;36011;53.362;58.948;2022-11-11T17:04:17;0.73;;;0.60;;
49942;SDS011;36011;53.362;58.948;2022-11-11T17:07:29;0.80;;;0.80;;
49942;SDS011;36011;53.362;58.948;2022-11-11T17:10:38;0.63;;;0.52;;
49942;SDS011;36011;53.362;58.948;2022-11-11T17:13:40;1.10;;;0.50;;
49942;SDS011;36011;53.362;58.948;2022-11-11T17:16:50;0.77;;;0.60;;
49942;SDS011;36011;53.362;58.948;2022-11-11T17:19:55;0.75;;;0.73;;
49942;SDS011;36011;53.362;58.948;2022-11-11T17:23:07;0.60;;;0.60;;
49942;SDS011;36011;53.362;58.948;2022-11-11T17:26:14;0.68;;;0.68;;
49942;SDS011;36011;53.362;58.948;2022-11-11T17:29:21;0.80;;;0.75;;
49942;SDS011;36011;53.362;58.948;2022-11-11T17:32:22;0.75;;;0.73;;
49942;SDS011;36011;53.362;58.948;2022-11-11T17:35:26;0.98;;;0.50;;
49942;SDS011;36011;53.362;58.948;2022-11-11T17:38:38;2.88;;;1.35;;
49942;SDS011;36011;53.362;58.948;2022-11-11T17:41:45;1.58;;;0.90;;
49942;SDS011;36011;53.362;58.948;2022-11-11T17:44:52;2.05;;;1.02;;
49942;SDS011;36011;53.362;58.948;2022-11-11T17:47:56;0.93;;;0.60;;
49942;SDS011;36011;53.362;58.948;2022-11-11T17:50:57;1.08;;;0.98;;
49942;SDS011;36011;53.362;58.948;2022-11-11T17:54:05;1.90;;;1.42;;
49942;SDS011;36011;53.362;58.948;2022-11-11T17:57:09;2.63;;;1.60;;
49942;SDS011;36011;53.362;58.948;2022-11-11T18:00:11;3.25;;;1.90;;
49942;SDS011;36011;53.362;58.948;2022-11-11T18:03:16;3.70;;;1.42;;
49942;SDS011;36011;53.362;58.948;2022-11-11T18:06:17;2.40;;;1.40;;
49942;SDS011;36011;53.362;58.948;2022-11-11T18:09:24;1.38;;;1.10;;
49942;SDS011;36011;53.362;58.948;2022-11-11T18:12:26;0.90;;;0.75;;
49942;SDS011;36011;53.362;58.948;2022-11-11T18:15:30;0.80;;;0.80;;
49942;SDS011;36011;53.362;58.948;2022-11-11T18:18:41;1.00;;;0.70;;
49942;SDS011;36011;53.362;58.948;2022-11-11T18:21:47;0.90;;;0.60;;
49942;SDS011;36011;53.362;58.948;2022-11-11T18:24:48;0.70;;;0.60;;
49942;SDS011;36011;53.362;58.948;2022-11-11T18:31:14;0.90;;;0.47;;
49942;SDS011;36011;53.362;58.948;2022-11-11T18:34:18;1.80;;;0.68;;
49942;SDS011;36011;53.362;58.948;2022-11-11T18:37:24;1.45;;;0.90;;
49942;SDS011;36011;53.362;58.948;2022-11-11T18:40:26;1.65;;;1.35;;
49942;SDS011;36011;53.362;58.948;2022-11-11T18:46:45;1.02;;;0.70;;
49942;SDS011;36011;53.362;58.948;2022-11-11T18:49:52;0.50;;;0.50;;
49942;SDS011;36011;53.362;58.948;2022-11-11T18:52:56;0.63;;;0.57;;
49942;SDS011;36011;53.362;58.948;2022-11-11T18:56:05;0.70;;;0.60;;
49942;SDS011;36011;53.362;58.948;2022-11-11T18:59:12;2.03;;;0.90;;
49942;SDS011;36011;53.362;58.948;2022-11-11T19:02:13;0.60;;;0.50;;
49942;SDS011;36011;53.362;58.948;2022-11-11T19:05:18;0.65;;;0.50;;
49942;SDS011;36011;53.362;58.948;2022-11-11T19:08:25;0.50;;;0.50;;
49942;SDS011;36011;53.362;58.948;2022-11-11T19:11:29;0.40;;;0.40;;
49942;SDS011;36011;53.362;58.948;2022-11-11T19:14:38;0.32;;;0.32;;
49942;SDS011;36011;53.362;58.948;2022-11-11T19:17:39;0.73;;;0.55;;
49942;SDS011;36011;53.362;58.948;2022-11-11T19:20:41;0.30;;;0.30;;
49942;SDS011;36011;53.362;58.948;2022-11-11T19:23:47;0.60;;;0.30;;
49942;SDS011;36011;53.362;58.948;2022-11-11T19:26:50;0.45;;;0.40;;
49942;SDS011;36011;53.362;58.948;2022-11-11T19:29:51;0.30;;;0.30;;
49942;SDS011;36011;53.362;58.948;2022-11-11T19:32:58;0.30;;;0.30;;
49942;SDS011;36011;53.362;58.948;2022-11-11T19:36:04;0.40;;;0.40;;
49942;SDS011;36011;53.362;58.948;2022-11-11T19:39:08;0.40;;;0.40;;
49942;SDS011;36011;53.362;58.948;2022-11-11T19:42:09;0.40;;;0.30;;
49942;SDS011;36011;53.362;58.948;2022-11-11T19:45:13;0.30;;;0.30;;
49942;SDS011;36011;53.362;58.948;2022-11-11T19:48:17;0.60;;;0.30;;
49942;SDS011;36011;53.362;58.948;2022-11-11T19:51:22;0.20;;;0.20;;
49942;SDS011;36011;53.362;58.948;2022-11-11T19:54:26;0.30;;;0.30;;
49942;SDS011;36011;53.362;58.948;2022-11-11T19:57:27;0.28;;;0.28;;
49942;SDS011;36011;53.362;58.948;2022-11-11T20:00:29;0.28;;;0.28;;
49942;SDS011;36011;53.362;58.948;2022-11-11T20:03:34;0.40;;;0.30;;
49942;SDS011;36011;53.362;58.948;2022-11-11T20:06:41;0.43;;;0.43;;
49942;SDS011;36011;53.362;58.948;2022-11-11T20:09:42;0.30;;;0.30;;
49942;SDS011;36011;53.362;58.948;2022-11-11T20:12:46;0.68;;;0.20;;
49942;SDS011;36011;53.362;58.948;2022-11-11T20:15:53;0.30;;;0.30;;
49942;SDS011;36011;53.362;58.948;2022-11-11T20:18:59;0.20;;;0.20;;
49942;SDS011;36011;53.362;58.948;2022-11-11T20:22:01;0.20;;;0.20;;
49942;SDS011;36011;53.362;58.948;2022-11-11T20:25:10;0.20;;;0.20;;
49942;SDS011;36011;53.362;58.948;2022-11-11T20:28:11;0.55;;;0.30;;
49942;SDS011;36011;53.362;58.948;2022-11-11T20:31:13;0.20;;;0.20;;
49942;SDS011;36011;53.362;58.948;2022-11-11T20:34:16;0.15;;;0.15;;
49942;SDS011;36011;53.362;58.948;2022-11-11T20:37:17;0.32;;;0.30;;
49942;SDS011;36011;53.362;58.948;2022-11-11T20:40:24;0.35;;;0.35;;
49942;SDS011;36011;53.362;58.948;2022-11-11T20:43:29;0.20;;;0.20;;
49942;SDS011;36011;53.362;58.948;2022-11-11T20:46:33;0.30;;;0.30;;
49942;SDS011;36011;53.362;58.948;2022-11-11T20:49:39;0.95;;;0.43;;
49942;SDS011;36011;53.362;58.948;2022-11-11T20:52:44;0.50;;;0.30;;
49942;SDS011;36011;53.362;58.948;2022-11-11T20:55:48;0.32;;;0.32;;
49942;SDS011;36011;53.362;58.948;2022-11-11T20:58:54;0.47;;;0.30;;
49942;SDS011;36011;53.362;58.948;2022-11-11T21:02:01;1.00;;;0.50;;
49942;SDS011;36011;53.362;58.948;2022-11-11T21:05:05;0.47;;;0.43;;
49942;SDS011;36011;53.362;58.948;2022-11-11T21:08:12;0.95;;;0.43;;
49942;SDS011;36011;53.362;58.948;2022-11-11T21:11:16;0.55;;;0.40;;
49942;SDS011;36011;53.362;58.948;2022-11-11T21:14:23;0.55;;;0.40;;
49942;SDS011;36011;53.362;58.948;2022-11-11T21:17:25;0.80;;;0.60;;
49942;SDS011;36011;53.362;58.948;2022-11-11T21:20:29;0.82;;;0.50;;
49942;SDS011;36011;53.362;58.948;2022-11-11T21:23:30;0.60;;;0.55;;
49942;SDS011;36011;53.362;58.948;2022-11-11T21:26:35;0.73;;;0.50;;
49942;SDS011;36011;53.362;58.948;2022-11-11T21:29:41;1.35;;;0.77;;
49942;SDS011;36011;53.362;58.948;2022-11-11T21:32:42;1.83;;;0.68;;
49942;SDS011;36011;53.362;58.948;2022-11-11T21:35:49;1.70;;;0.80;;